Time;durP1;ratioP1;P1;durP2;ratioP2;P2;SDS_P1;SDS_P2;PMS_P1;PMS_P2;Temp;Humidity;BMP_temperature;BMP_pressure;BME280_temperature;BME280_humidity;BME280_pressure;Samples;Min_cycle;Max_cycle;Signal;HPM_P1;HPM_P2
2024/01/14 00:00:09;;;;;;;19.15;12.32;;;;;;;2.46;100.00;100846.84;6118108;23;20092;-90
2024/01/14 00:02:35;;;;;;;18.60;12.52;;;;;;;2.42;100.00;100850.34;6117816;23;20532;-92
2024/01/14 00:05:01;;;;;;;18.48;12.10;;;;;;;2.42;100.00;100840.16;6119638;23;20029;-92
2024/01/14 00:07:26;;;;;;;21.17;12.60;;;;;;;2.46;100.00;100840.94;6118557;23;20322;-93
2024/01/14 00:09:52;;;;;;;22.30;13.18;;;;;;;2.38;100.00;100837.69;6120071;23;20002;-92
2024/01/14 00:12:18;;;;;;;23.27;13.30;;;;;;;2.47;100.00;100830.72;6120492;23;20337;-91
2024/01/14 00:14:43;;;;;;;20.38;13.50;;;;;;;2.33;100.00;100840.31;6117741;23;20013;-91
2024/01/14 00:17:10;;;;;;;22.33;13.63;;;;;;;2.44;100.00;100828.25;6118444;23;20017;-91
2024/01/14 00:19:35;;;;;;;22.38;14.27;;;;;;;2.66;100.00;100820.19;6120216;23;20032;-91
2024/01/14 00:22:01;;;;;;;24.58;14.35;;;;;;;2.57;100.00;100814.41;6119714;23;20014;-93
2024/01/14 00:24:26;;;;;;;19.00;12.20;;;;;;;2.55;100.00;100811.03;6120193;23;20468;-92
2024/01/14 00:26:51;;;;;;;21.70;14.68;;;;;;;2.61;100.00;100809.25;6120951;23;20031;-92
2024/01/14 00:29:16;;;;;;;23.48;14.25;;;;;;;2.57;100.00;100811.03;6119205;23;20025;-91
2024/01/14 00:31:42;;;;;;;23.17;13.40;;;;;;;2.45;100.00;100808.69;6120136;23;20051;-92
2024/01/14 00:34:07;;;;;;;23.35;13.45;;;;;;;2.51;100.00;100811.97;6120170;23;20002;-92
2024/01/14 00:36:38;;;;;;;24.30;14.02;;;;;;;2.38;100.00;100807.13;6119556;23;20006;-91
2024/01/14 00:39:04;;;;;;;26.95;16.02;;;;;;;2.37;100.00;100800.34;6118455;23;20002;-91
2024/01/14 00:41:29;;;;;;;24.35;14.43;;;;;;;2.37;100.00;100795.25;6118253;23;20009;-93
2024/01/14 00:43:55;;;;;;;25.25;14.90;;;;;;;2.46;100.00;100795.06;6119461;23;20059;-92
2024/01/14 00:46:20;;;;;;;24.02;14.00;;;;;;;2.44;100.00;100796.81;6118353;23;20328;-93
2024/01/14 00:48:45;;;;;;;22.30;13.65;;;;;;;2.50;100.00;100796.72;6120268;23;20002;-92
2024/01/14 00:51:11;;;;;;;23.92;14.63;;;;;;;2.45;100.00;100789.16;6117999;23;20068;-93
2024/01/14 00:53:36;;;;;;;23.30;13.50;;;;;;;2.37;100.00;100785.91;6118521;23;20056;-92
2024/01/14 00:56:02;;;;;;;27.25;14.65;;;;;;;2.26;100.00;100790.34;6118045;23;20006;-92
2024/01/14 00:58:27;;;;;;;24.20;14.63;;;;;;;2.39;100.00;100783.31;6120075;23;19998;-93
2024/01/14 01:00:53;;;;;;;22.17;13.82;;;;;;;2.38;100.00;100777.38;6119415;23;20005;-92
2024/01/14 01:03:18;;;;;;;25.00;16.20;;;;;;;2.24;100.00;100787.81;6118193;23;20013;-92
2024/01/14 01:05:44;;;;;;;25.75;14.73;;;;;;;2.34;100.00;100775.75;6118998;23;20010;-92
2024/01/14 01:08:09;;;;;;;27.58;14.50;;;;;;;2.38;100.00;100772.28;6118372;23;20006;-92
2024/01/14 01:10:34;;;;;;;24.65;14.70;;;;;;;2.35;100.00;100768.09;6119565;23;20024;-92
2024/01/14 01:13:00;;;;;;;25.15;14.48;;;;;;;2.38;100.00;100767.19;6118741;23;20025;-92
2024/01/14 01:15:25;;;;;;;27.23;15.70;;;;;;;2.43;100.00;100764.56;6118932;23;20036;-91
2024/01/14 01:17:50;;;;;;;27.92;15.90;;;;;;;2.40;100.00;100759.53;6121328;23;20428;-92
2024/01/14 01:20:16;;;;;;;27.95;17.08;;;;;;;2.26;100.00;100749.59;6121013;23;20010;-92
2024/01/14 01:22:41;;;;;;;31.38;17.20;;;;;;;2.11;100.00;100754.09;6120007;23;20010;-93
2024/01/14 01:25:07;;;;;;;26.92;14.93;;;;;;;2.21;100.00;100756.47;6121444;23;20002;-92
2024/01/14 01:27:32;;;;;;;29.17;16.35;;;;;;;2.25;100.00;100748.75;6121663;23;20002;-92
2024/01/14 01:29:58;;;;;;;29.33;16.60;;;;;;;2.25;100.00;100745.38;6121292;23;20074;-92
2024/01/14 01:32:24;;;;;;;31.52;18.02;;;;;;;2.12;100.00;100745.59;6121737;23;20072;-92
2024/01/14 01:34:49;;;;;;;35.05;17.25;;;;;;;2.10;100.00;100747.34;6119328;23;20084;-92
2024/01/14 01:37:15;;;;;;;30.13;16.67;;;;;;;2.14;100.00;100741.28;6119705;23;20025;-92
2024/01/14 01:39:40;;;;;;;31.38;17.95;;;;;;;2.20;100.00;100734.44;6119812;23;20032;-92
2024/01/14 01:42:06;;;;;;;29.65;17.13;;;;;;;2.12;100.00;100735.41;6121365;23;20014;-91
2024/01/14 01:44:33;;;;;;;27.65;16.55;;;;;;;2.16;100.00;100733.66;6121038;23;20079;-91
2024/01/14 01:47:00;;;;;;;27.73;16.13;;;;;;;2.10;100.00;100726.97;6119481;23;20013;-92
2024/01/14 01:49:27;;;;;;;34.15;17.83;;;;;;;2.11;100.00;100727.78;6119544;23;20073;-94
2024/01/14 01:51:53;;;;;;;30.52;15.57;;;;;;;2.21;100.00;100728.47;6119866;23;20052;-92
2024/01/14 01:54:22;;;;;;;30.45;16.80;;;;;;;2.29;100.00;100718.97;6121237;23;20010;-92
2024/01/14 01:56:50;;;;;;;29.50;16.40;;;;;;;2.34;100.00;100719.72;6121304;23;20030;-90
2024/01/14 01:59:15;;;;;;;26.48;16.35;;;;;;;2.33;100.00;100712.97;6120266;23;20006;-92
2024/01/14 02:01:47;;;;;;;26.52;16.15;;;;;;;2.39;100.00;100702.66;6121075;23;20410;-91
2024/01/14 02:04:17;;;;;;;27.05;16.00;;;;;;;2.38;100.00;100695.88;6119179;23;20009;-92
2024/01/14 02:06:43;;;;;;;29.30;17.40;;;;;;;2.29;100.00;100702.00;6121009;23;20002;-92
2024/01/14 02:09:09;;;;;;;29.52;16.05;;;;;;;2.32;100.00;100696.00;6119432;23;20016;-91
2024/01/14 02:11:35;;;;;;;27.38;15.98;;;;;;;2.34;100.00;100694.25;6119594;23;20067;-92
2024/01/14 02:14:02;;;;;;;27.60;15.60;;;;;;;2.35;100.00;100690.84;6121041;23;20495;-92
2024/01/14 02:16:27;;;;;;;30.92;17.52;;;;;;;2.19;100.00;100689.47;6119732;23;20014;-91
2024/01/14 02:18:52;;;;;;;33.30;18.38;;;;;;;2.22;100.00;100694.47;6119154;23;20006;-92
2024/01/14 02:21:22;;;;;;;27.13;17.20;;;;;;;2.36;100.00;100695.06;6120796;23;20005;-92
2024/01/14 02:23:58;;;;;;;25.58;14.93;;;;;;;2.32;100.00;100689.19;6119275;23;20017;-93
2024/01/14 02:26:23;;;;;;;23.92;14.95;;;;;;;2.38;100.00;100685.69;6120613;23;20006;-91
2024/01/14 02:28:49;;;;;;;26.02;15.73;;;;;;;2.45;100.00;100688.97;6119497;23;20309;-92
2024/01/14 02:31:15;;;;;;;23.15;15.05;;;;;;;2.43;100.00;100688.97;6121047;23;20032;-92
2024/01/14 02:33:40;;;;;;;31.15;16.45;;;;;;;2.51;100.00;100687.13;6121024;23;20006;-92
2024/01/14 02:36:06;;;;;;;29.42;15.63;;;;;;;2.51;100.00;100679.50;6119517;23;20067;-92
2024/01/14 02:38:31;;;;;;;30.05;17.13;;;;;;;2.50;100.00;100680.34;6120837;23;20005;-92
2024/01/14 02:40:56;;;;;;;25.45;15.25;;;;;;;2.58;100.00;100672.53;6119388;23;20040;-91
2024/01/14 02:43:22;;;;;;;25.02;15.20;;;;;;;2.56;100.00;100675.13;6119257;23;20002;-90
2024/01/14 02:45:47;;;;;;;25.50;14.70;;;;;;;2.43;100.00;100677.97;6119272;23;20008;-92
2024/01/14 02:48:12;;;;;;;27.17;15.77;;;;;;;2.54;100.00;100681.97;6121095;23;20029;-92
2024/01/14 02:50:38;;;;;;;27.20;15.65;;;;;;;2.51;100.00;100673.53;6119433;23;20013;-92
2024/01/14 02:53:04;;;;;;;26.48;15.10;;;;;;;2.55;100.00;100663.25;6119471;23;20041;-92
2024/01/14 02:55:29;;;;;;;26.77;16.38;;;;;;;2.41;100.00;100675.44;6120812;23;20417;-92
2024/01/14 02:57:55;;;;;;;25.55;14.32;;;;;;;2.50;100.00;100667.59;6119444;23;20011;-93
2024/01/14 03:00:21;;;;;;;27.30;14.57;;;;;;;2.47;100.00;100662.59;6121076;23;20006;-93
2024/01/14 03:02:46;;;;;;;30.42;16.50;;;;;;;2.39;100.00;100661.03;6120550;23;20006;-92
2024/01/14 03:05:12;;;;;;;31.13;16.50;;;;;;;2.40;100.00;100668.66;6119631;23;20002;-90
2024/01/14 03:07:38;;;;;;;25.13;16.08;;;;;;;2.42;100.00;100666.94;6120823;23;20468;-92
2024/01/14 03:10:04;;;;;;;27.35;16.00;;;;;;;2.53;100.00;100659.88;6120792;23;20375;-92
2024/01/14 03:12:29;;;;;;;33.67;17.10;;;;;;;2.56;100.00;100649.66;6120949;23;19998;-93
2024/01/14 03:14:54;;;;;;;23.27;14.82;;;;;;;2.63;100.00;100662.25;6119437;23;20378;-91
2024/01/14 03:17:20;;;;;;;30.50;17.38;;;;;;;2.65;100.00;100652.88;6121474;23;20006;-92
2024/01/14 03:19:45;;;;;;;23.50;14.38;;;;;;;2.72;100.00;100644.22;6120960;23;20009;-93
2024/01/14 03:22:10;;;;;;;24.10;13.55;;;;;;;2.75;100.00;100644.16;6119530;23;20010;-93
2024/01/14 03:24:36;;;;;;;24.02;15.00;;;;;;;2.85;100.00;100639.69;6119298;23;20021;-92
2024/01/14 03:27:01;;;;;;;23.05;14.27;;;;;;;2.71;100.00;100643.41;6120910;23;20013;-92
2024/01/14 03:29:26;;;;;;;21.52;13.45;;;;;;;2.64;100.00;100630.81;6119489;23;20357;-90
2024/01/14 03:31:52;;;;;;;22.98;13.38;;;;;;;2.65;100.00;100638.41;6119179;23;20001;-91
2024/01/14 03:34:17;;;;;;;27.23;13.80;;;;;;;2.68;100.00;100634.97;6121000;23;20053;-93
2024/01/14 03:36:42;;;;;;;20.92;13.40;;;;;;;2.56;100.00;100639.47;6118820;23;20434;-93
2024/01/14 03:39:08;;;;;;;27.95;15.23;;;;;;;2.44;100.00;100619.34;6120997;23;20441;-94
2024/01/14 03:41:33;;;;;;;23.75;14.55;;;;;;;2.42;100.00;100616.00;6120618;23;20496;-91
2024/01/14 03:43:58;;;;;;;26.13;15.45;;;;;;;2.48;100.00;100622.66;6119073;23;20001;-91
2024/01/14 03:46:24;;;;;;;22.75;13.43;;;;;;;2.54;100.00;100620.00;6120516;23;20085;-92
2024/01/14 03:48:49;;;;;;;24.65;13.80;;;;;;;2.59;100.00;100617.34;6119829;23;20024;-93
2024/01/14 03:51:15;;;;;;;24.15;14.98;;;;;;;2.61;100.00;100618.13;6120806;23;20081;-92
2024/01/14 03:53:40;;;;;;;21.98;14.45;;;;;;;2.64;100.00;100620.63;6119332;23;20005;-90
2024/01/14 03:56:05;;;;;;;23.60;13.77;;;;;;;2.63;100.00;100608.75;6120583;23;20006;-93
2024/01/14 03:58:31;;;;;;;27.85;16.95;;;;;;;2.70;100.00;100605.19;6119252;23;20001;-92
2024/01/14 04:00:56;;;;;;;26.08;14.75;;;;;;;2.69;100.00;100595.88;6118784;23;20010;-93
2024/01/14 04:03:21;;;;;;;23.02;13.43;;;;;;;2.52;100.00;100602.19;6120600;23;20009;-93
2024/01/14 04:05:47;;;;;;;21.15;13.45;;;;;;;2.60;100.00;100608.81;6119027;23;20055;-92
2024/01/14 04:08:12;;;;;;;22.27;13.75;;;;;;;2.61;100.00;100596.06;6120465;23;20005;-92
2024/01/14 04:10:37;;;;;;;28.95;15.05;;;;;;;2.61;100.00;100595.19;6120441;23;20012;-92
2024/01/14 04:13:03;;;;;;;24.60;14.73;;;;;;;2.68;100.00;100594.19;6120756;23;20034;-92
2024/01/14 04:15:28;;;;;;;24.27;14.15;;;;;;;2.72;100.00;100598.34;6119411;23;20006;-92
2024/01/14 04:17:54;;;;;;;22.77;13.38;;;;;;;2.75;100.00;100598.28;6119186;23;20002;-92
2024/01/14 04:20:19;;;;;;;24.23;14.15;;;;;;;2.82;100.00;100598.97;6118828;23;20424;-93
2024/01/14 04:22:44;;;;;;;25.77;14.05;;;;;;;2.87;100.00;100592.91;6120389;23;20010;-92
2024/01/14 04:25:10;;;;;;;23.88;13.15;;;;;;;2.86;100.00;100593.78;6118635;23;20083;-93
2024/01/14 04:27:37;;;;;;;22.42;14.50;;;;;;;2.87;100.00;100585.25;6120786;23;20018;-93
2024/01/14 04:30:03;;;;;;;24.35;14.65;;;;;;;2.86;100.00;100593.78;6119011;23;20437;-92
2024/01/14 04:32:29;;;;;;;23.05;13.50;;;;;;;2.87;100.00;100590.34;6119059;23;20396;-91
2024/01/14 04:34:54;;;;;;;25.10;14.65;;;;;;;2.85;100.00;100589.53;6118891;23;20077;-92
2024/01/14 04:37:19;;;;;;;24.00;13.38;;;;;;;2.87;100.00;100585.25;6120593;23;20417;-92
2024/01/14 04:39:45;;;;;;;23.65;13.25;;;;;;;2.71;100.00;100587.31;6119006;23;20314;-93
2024/01/14 04:42:10;;;;;;;24.15;14.82;;;;;;;2.71;100.00;100583.94;6120317;23;20065;-92
2024/01/14 04:44:35;;;;;;;24.73;14.52;;;;;;;2.73;100.00;100584.72;6118690;23;20002;-92
2024/01/14 04:47:01;;;;;;;27.45;15.40;;;;;;;2.59;100.00;100577.41;6118628;23;20494;-93
2024/01/14 04:49:26;;;;;;;24.60;14.82;;;;;;;2.75;100.00;100577.88;6119811;23;20558;-93
2024/01/14 04:51:51;;;;;;;26.98;15.07;;;;;;;2.85;100.00;100579.34;6121781;23;20314;-93
2024/01/14 04:54:17;;;;;;;22.90;14.15;;;;;;;2.77;100.00;100576.16;6120720;23;20069;-92
2024/01/14 04:56:43;;;;;;;23.00;14.50;;;;;;;2.70;100.00;100580.53;6122606;23;20002;-93
2024/01/14 04:59:09;;;;;;;23.10;14.48;;;;;;;2.72;100.00;100575.41;6120450;23;20306;-92
2024/01/14 05:01:34;;;;;;;24.15;14.82;;;;;;;2.74;100.00;100569.41;6120531;23;20010;-93
2024/01/14 05:04:01;;;;;;;26.92;15.60;;;;;;;2.71;100.00;100566.09;6120401;23;20028;-94
2024/01/14 05:06:26;;;;;;;24.73;14.88;;;;;;;2.74;100.00;100573.69;6121917;23;20005;-92
2024/01/14 05:08:52;;;;;;;25.40;14.68;;;;;;;2.66;100.00;100557.69;6120529;23;20037;-92
2024/01/14 05:11:17;;;;;;;27.42;15.65;;;;;;;2.60;100.00;100562.94;6120524;23;20009;-93
2024/01/14 05:13:43;;;;;;;27.98;15.18;;;;;;;2.53;100.00;100557.97;6120141;23;20055;-92
2024/01/14 05:16:09;;;;;;;32.58;16.98;;;;;;;2.49;100.00;100560.66;6119830;23;20017;-92
2024/01/14 05:18:35;;;;;;;24.35;14.18;;;;;;;2.48;100.00;100547.06;6120058;23;19998;-91
2024/01/14 05:21:00;;;;;;;24.55;13.98;;;;;;;2.51;100.00;100552.09;6121304;23;20062;-91
2024/01/14 05:23:26;;;;;;;26.08;14.98;;;;;;;2.52;100.00;100546.13;6119703;23;20002;-92
2024/01/14 05:25:51;;;;;;;28.33;15.43;;;;;;;2.52;100.00;100548.69;6121293;23;20294;-92
2024/01/14 05:28:16;;;;;;;26.08;15.05;;;;;;;2.51;100.00;100541.91;6120201;23;20052;-93
2024/01/14 05:30:42;;;;;;;23.42;14.70;;;;;;;2.52;100.00;100535.94;6122296;23;20441;-92
2024/01/14 05:33:07;;;;;;;23.10;14.07;;;;;;;2.58;100.00;100534.94;6119913;23;20010;-93
2024/01/14 05:35:33;;;;;;;23.00;14.48;;;;;;;2.53;100.00;100536.75;6121470;23;20382;-92
2024/01/14 05:37:58;;;;;;;22.58;13.98;;;;;;;2.47;100.00;100542.00;6121527;23;20315;-92
2024/01/14 05:40:23;;;;;;;23.67;13.77;;;;;;;2.42;100.00;100547.22;6121834;23;20329;-92
2024/01/14 05:42:49;;;;;;;22.83;13.40;;;;;;;2.47;100.00;100542.00;6121453;23;20010;-91
2024/01/14 05:45:14;;;;;;;23.92;14.45;;;;;;;2.45;100.00;100536.94;6119711;23;20013;-92
2024/01/14 05:47:39;;;;;;;24.70;13.55;;;;;;;2.48;100.00;100539.41;6121614;23;20010;-91
2024/01/14 05:50:08;;;;;;;21.05;13.68;;;;;;;2.50;100.00;100536.84;6120217;23;20017;-91
2024/01/14 05:52:33;;;;;;;26.67;15.15;;;;;;;2.45;100.00;100526.75;6119702;23;20011;-92
2024/01/14 05:55:40;;;;;;;23.45;14.45;;;;;;;2.48;100.00;100530.94;6121469;23;19998;-92
2024/01/14 05:58:06;;;;;;;27.98;14.82;;;;;;;2.53;100.00;100522.31;6121686;23;20112;-92
2024/01/14 06:00:31;;;;;;;28.30;14.52;;;;;;;2.60;100.00;100530.66;6120216;23;20093;-92
2024/01/14 06:02:57;;;;;;;26.30;14.38;;;;;;;2.57;100.00;100523.94;6119684;23;20390;-92
2024/01/14 06:05:22;;;;;;;22.42;13.70;;;;;;;2.55;100.00;100525.66;6121557;23;20009;-92
2024/01/14 06:07:47;;;;;;;25.33;14.85;;;;;;;2.51;100.00;100519.00;6120540;23;20010;-93
2024/01/14 06:10:13;;;;;;;26.10;14.00;;;;;;;2.48;100.00;100519.03;6120295;23;20002;-92
2024/01/14 06:12:38;;;;;;;24.45;14.55;;;;;;;2.44;100.00;100514.03;6119663;23;20002;-93
2024/01/14 06:15:03;;;;;;;24.70;14.30;;;;;;;2.43;100.00;100514.94;6119835;23;20010;-92
2024/01/14 06:17:29;;;;;;;27.40;14.70;;;;;;;2.43;100.00;100515.75;6119768;23;20456;-92
2024/01/14 06:19:54;;;;;;;26.45;15.15;;;;;;;2.47;100.00;100517.38;6119897;23;20006;-92
2024/01/14 06:22:19;;;;;;;27.17;15.45;;;;;;;2.52;100.00;100517.28;6119714;23;20005;-93
2024/01/14 06:24:45;;;;;;;21.13;13.77;;;;;;;2.57;100.00;100523.09;6121699;23;20001;-91
2024/01/14 06:27:10;;;;;;;23.98;13.75;;;;;;;2.44;100.00;100520.00;6121959;23;20009;-90
2024/01/14 06:29:36;;;;;;;25.55;14.80;;;;;;;2.35;100.00;100527.84;6121653;23;20033;-92
2024/01/14 06:32:01;;;;;;;24.98;14.40;;;;;;;2.47;100.00;100527.56;6120077;23;20314;-92
2024/01/14 06:34:26;;;;;;;27.20;14.98;;;;;;;2.57;100.00;100529.03;6121523;23;20622;-92
2024/01/14 06:36:52;;;;;;;23.10;13.48;;;;;;;2.59;100.00;100520.53;6120357;23;20006;-92
2024/01/14 06:39:17;;;;;;;24.35;14.82;;;;;;;2.60;100.00;100519.63;6119917;23;20433;-92
2024/01/14 06:41:42;;;;;;;25.80;14.93;;;;;;;2.60;100.00;100523.00;6120268;23;20402;-92
2024/01/14 06:44:08;;;;;;;23.38;14.10;;;;;;;2.61;100.00;100518.75;6120054;23;20013;-93
2024/01/14 06:46:33;;;;;;;24.80;13.95;;;;;;;2.45;100.00;100515.72;6119722;23;20032;-93
2024/01/14 06:48:58;;;;;;;23.52;13.57;;;;;;;2.53;100.00;100517.22;6121439;23;20440;-93
2024/01/14 06:51:24;;;;;;;24.55;15.40;;;;;;;2.53;100.00;100517.22;6119649;23;20318;-92
2024/01/14 06:53:49;;;;;;;23.25;14.70;;;;;;;2.48;100.00;100519.03;6121546;23;20006;-92
2024/01/14 06:56:16;;;;;;;27.23;15.02;;;;;;;2.55;100.00;100525.66;6121555;23;20006;-94
2024/01/14 06:58:41;;;;;;;30.48;15.82;;;;;;;2.65;100.00;100523.75;6120312;23;20013;-93
2024/01/14 07:01:07;;;;;;;32.88;15.93;;;;;;;2.62;100.00;100517.91;6120536;23;20395;-93
2024/01/14 07:03:33;;;;;;;23.83;13.65;;;;;;;2.41;100.00;100527.69;6120089;23;20013;-93
2024/01/14 07:05:58;;;;;;;24.70;14.15;;;;;;;2.57;100.00;100521.38;6120200;23;20009;-93
2024/01/14 07:08:24;;;;;;;25.10;13.55;;;;;;;2.60;100.00;100514.53;6120454;23;20009;-93
2024/01/14 07:10:50;;;;;;;24.55;14.23;;;;;;;2.57;100.00;100513.72;6119749;23;20446;-92
2024/01/14 07:13:16;;;;;;;25.80;14.07;;;;;;;2.66;100.00;100502.50;6119382;23;20040;-94
2024/01/14 07:15:42;;;;;;;29.33;15.63;;;;;;;2.64;100.00;100503.41;6119221;23;20036;-91
2024/01/14 07:18:08;;;;;;;24.20;14.23;;;;;;;2.62;100.00;100508.53;6120935;23;20505;-92
2024/01/14 07:20:33;;;;;;;21.13;13.20;;;;;;;2.57;100.00;100511.19;6121035;23;20006;-93
2024/01/14 07:22:58;;;;;;;25.90;14.80;;;;;;;2.48;100.00;100524.13;6120534;23;20452;-92
2024/01/14 07:25:24;;;;;;;22.48;13.20;;;;;;;2.62;100.00;100510.25;6120696;23;20002;-92
2024/01/14 07:27:49;;;;;;;26.63;14.25;;;;;;;2.68;100.00;100507.53;6120854;23;20005;-91
2024/01/14 07:30:18;;;;;;;28.58;15.32;;;;;;;2.76;100.00;100506.50;6121168;23;20002;-91
2024/01/14 07:32:43;;;;;;;25.02;14.63;;;;;;;2.72;100.00;100507.44;6119595;23;20010;-92
2024/01/14 07:35:08;;;;;;;23.58;14.90;;;;;;;2.79;100.00;100508.13;6118900;23;20006;-92
2024/01/14 07:37:34;;;;;;;23.58;13.38;;;;;;;2.61;100.00;100501.78;6121115;23;20063;-92
2024/01/14 07:40:00;;;;;;;22.88;14.07;;;;;;;2.77;100.00;100502.22;6119573;23;20002;-92
2024/01/14 07:42:26;;;;;;;25.50;14.02;;;;;;;2.59;100.00;100500.13;6121189;23;20053;-92
2024/01/14 07:44:52;;;;;;;21.30;13.05;;;;;;;2.65;100.00;100499.97;6120729;23;20429;-92
2024/01/14 07:47:17;;;;;;;26.25;14.90;;;;;;;2.68;100.00;100505.00;6119287;23;20012;-92
2024/01/14 07:49:48;;;;;;;23.17;14.32;;;;;;;2.69;100.00;100504.13;6121201;23;20034;-94
2024/01/14 07:52:14;;;;;;;24.30;15.25;;;;;;;2.79;100.00;100503.03;6119274;23;20002;-93
2024/01/14 07:54:39;;;;;;;23.73;15.00;;;;;;;2.83;100.00;100489.34;6120837;23;20500;-93
2024/01/14 07:57:05;;;;;;;27.20;13.73;;;;;;;2.68;100.00;100498.22;6119371;23;20006;-94
2024/01/14 07:59:30;;;;;;;27.10;14.73;;;;;;;2.74;100.00;100498.03;6120744;23;20006;-93
2024/01/14 08:01:56;;;;;;;21.70;14.07;;;;;;;2.70;100.00;100498.16;6120821;23;20329;-93
2024/01/14 08:04:21;;;;;;;24.15;14.15;;;;;;;2.78;100.00;100496.28;6119579;23;20009;-94
2024/01/14 08:06:46;;;;;;;24.70;14.63;;;;;;;2.83;100.00;100503.78;6119428;23;20010;-94
2024/01/14 08:09:12;;;;;;;23.17;13.93;;;;;;;2.81;100.00;100491.09;6119322;23;20009;-93
2024/01/14 08:11:37;;;;;;;27.63;15.35;;;;;;;2.87;100.00;100500.28;6120883;23;20314;-93
2024/01/14 08:14:02;;;;;;;24.15;14.43;;;;;;;2.85;100.00;100500.31;6119260;23;20006;-93
2024/01/14 08:16:28;;;;;;;27.02;15.02;;;;;;;2.83;100.00;100493.59;6120332;23;20033;-93
2024/01/14 08:18:53;;;;;;;26.23;15.13;;;;;;;2.89;100.00;100496.84;6119168;23;20006;-93
2024/01/14 08:21:18;;;;;;;25.52;15.80;;;;;;;2.83;100.00;100504.66;6120704;23;20386;-94
2024/01/14 08:23:44;;;;;;;25.45;14.75;;;;;;;2.87;100.00;100497.75;6120316;23;20143;-94
2024/01/14 08:26:09;;;;;;;26.02;14.70;;;;;;;2.91;100.00;100491.72;6117546;23;20013;-94
2024/01/14 08:28:35;;;;;;;26.15;14.60;;;;;;;2.90;100.00;100495.13;6118762;23;20009;-94
2024/01/14 08:31:01;;;;;;;26.75;16.10;;;;;;;2.89;100.00;100486.63;6119688;23;20052;-91
2024/01/14 08:33:28;;;;;;;27.33;15.95;;;;;;;2.82;100.00;100486.81;6120249;23;20006;-94
2024/01/14 08:35:54;;;;;;;27.27;15.27;;;;;;;2.72;100.00;100481.13;6119910;23;20002;-93
2024/01/14 08:38:20;;;;;;;24.38;14.85;;;;;;;2.81;100.00;100483.44;6119318;23;20006;-93
2024/01/14 08:40:46;;;;;;;25.67;14.77;;;;;;;2.99;100.00;100480.41;6119649;23;20014;-92
2024/01/14 08:43:12;;;;;;;27.92;14.00;;;;;;;3.12;100.00;100480.09;6118724;23;20018;-93
2024/01/14 08:45:38;;;;;;;25.95;14.27;;;;;;;3.11;100.00;100473.34;6120138;23;20079;-95
2024/01/14 08:48:06;;;;;;;27.02;15.77;;;;;;;3.06;100.00;100470.09;6118849;23;20010;-93
2024/01/14 08:50:32;;;;;;;27.27;15.10;;;;;;;3.15;100.00;100470.69;6119805;23;20332;-93
2024/01/14 08:52:58;;;;;;;25.27;14.60;;;;;;;3.20;100.00;100473.09;6120286;23;20014;-93
2024/01/14 08:55:24;;;;;;;26.23;14.50;;;;;;;3.25;100.00;100465.34;6119338;23;20003;-93
2024/01/14 08:57:49;;;;;;;23.95;14.57;;;;;;;3.30;100.00;100459.22;6120270;23;20013;-93
2024/01/14 09:00:15;;;;;;;24.20;13.77;;;;;;;3.34;100.00;100460.81;6118409;23;20069;-93
2024/01/14 09:02:41;;;;;;;21.95;13.48;;;;;;;3.40;100.00;100459.81;6119393;23;20077;-95
2024/01/14 09:05:07;;;;;;;24.17;13.35;;;;;;;3.42;100.00;100465.72;6118826;23;20002;-90
2024/01/14 09:07:33;;;;;;;24.20;13.45;;;;;;;3.43;100.00;100458.00;6116645;23;19994;-91
2024/01/14 09:09:59;;;;;;;23.48;13.70;;;;;;;3.49;100.00;100456.16;6117120;23;20013;-91
2024/01/14 09:12:25;;;;;;;27.75;14.80;;;;;;;3.42;100.00;100458.88;6115994;23;20006;-90
2024/01/14 09:14:51;;;;;;;30.98;15.55;;;;;;;3.46;100.00;100463.91;6117472;23;20133;-92
2024/01/14 09:17:17;;;;;;;27.67;16.40;;;;;;;3.40;100.00;100465.75;6116309;23;20012;-92
2024/01/14 09:19:44;;;;;;;29.58;16.67;;;;;;;3.55;100.00;100461.09;6117712;23;20002;-93
2024/01/14 09:22:09;;;;;;;27.13;14.38;;;;;;;3.58;100.00;100455.91;6117183;23;20020;-91
2024/01/14 09:24:35;;;;;;;26.92;15.02;;;;;;;3.59;100.00;100470.34;6118341;23;20002;-92
2024/01/14 09:27:00;;;;;;;28.45;15.65;;;;;;;3.55;100.00;100458.53;6116264;23;20006;-91
2024/01/14 09:29:26;;;;;;;24.67;14.63;;;;;;;3.58;100.00;100458.44;6116756;23;20033;-92
2024/01/14 09:31:51;;;;;;;27.65;15.48;;;;;;;3.70;100.00;100447.06;6117080;23;20089;-89
2024/01/14 09:34:17;;;;;;;26.73;15.52;;;;;;;3.88;100.00;100461.00;6116023;23;20452;-89
2024/01/14 09:36:43;;;;;;;28.02;16.60;;;;;;;3.88;100.00;100455.88;6119849;23;20045;-89
2024/01/14 09:39:10;;;;;;;26.50;15.30;;;;;;;3.94;100.00;100450.63;6120056;23;20029;-89
2024/01/14 09:41:54;;;;;;;26.25;15.30;;;;;;;3.81;100.00;100453.53;6119227;23;20345;-91
2024/01/14 09:44:20;;;;;;;25.58;15.50;;;;;;;3.73;100.00;100447.81;6118944;23;20029;-92
2024/01/14 09:46:47;;;;;;;24.77;14.23;;;;;;;3.82;100.00;100447.53;6119816;23;20028;-91
2024/01/14 09:49:15;;;;;;;22.67;14.70;;;;;;;3.73;100.00;100440.16;6120128;23;20002;-91
2024/01/14 09:51:40;;;;;;;23.67;14.55;;;;;;;3.84;100.00;100442.41;6120130;23;19998;-91
2024/01/14 09:54:06;;;;;;;22.77;14.60;;;;;;;3.98;100.00;100440.28;6118566;23;20006;-90
2024/01/14 09:56:34;;;;;;;26.63;15.45;;;;;;;4.23;100.00;100431.84;6119096;23;20056;-92
2024/01/14 09:59:03;;;;;;;24.42;14.43;;;;;;;4.45;100.00;100432.00;6118531;23;20002;-91
2024/01/14 10:01:33;;;;;;;28.60;16.13;;;;;;;4.55;100.00;100432.53;6120007;23;20047;-91
2024/01/14 10:04:03;;;;;;;26.45;15.63;;;;;;;4.62;100.00;100437.41;6119957;23;20005;-92
2024/01/14 10:06:29;;;;;;;26.50;15.73;;;;;;;5.05;100.00;100432.56;6118339;23;20059;-92
2024/01/14 10:08:56;;;;;;;25.55;14.88;;;;;;;5.30;100.00;100432.53;6119972;23;20005;-91
2024/01/14 10:11:21;;;;;;;25.25;14.23;;;;;;;5.26;100.00;100439.47;6117874;23;20002;-92
2024/01/14 10:13:48;;;;;;;22.90;13.80;;;;;;;5.35;100.00;100443.44;6117048;23;20006;-92
2024/01/14 10:16:14;;;;;;;20.65;12.18;;;;;;;5.67;100.00;100436.31;6119433;23;20093;-90
2024/01/14 10:18:39;;;;;;;19.05;12.32;;;;;;;6.62;100.00;100430.88;6119992;23;20484;-91
2024/01/14 10:21:05;;;;;;;21.35;12.52;;;;;;;8.91;100.00;100425.56;6120116;23;20006;-90
2024/01/14 10:23:33;;;;;;;20.92;12.18;;;;;;;9.76;90.91;100434.88;6119746;23;20421;-91
2024/01/14 10:26:01;;;;;;;15.38;9.45;;;;;;;10.06;82.92;100428.94;6119305;23;20005;-91
2024/01/14 10:28:36;;;;;;;17.35;9.32;;;;;;;9.31;84.30;100423.50;6120921;23;20060;-91
2024/01/14 10:31:03;;;;;;;13.30;7.72;;;;;;;8.39;88.91;100420.44;6117792;23;20429;-91
2024/01/14 10:33:33;;;;;;;12.57;7.28;;;;;;;8.94;86.51;100420.28;6119631;23;20009;-91
2024/01/14 10:36:00;;;;;;;13.13;7.75;;;;;;;9.55;81.58;100420.56;6119161;23;20002;-90
2024/01/14 10:38:25;;;;;;;11.02;6.57;;;;;;;10.11;77.07;100413.22;6119865;23;20001;-90
2024/01/14 10:40:51;;;;;;;12.73;6.78;;;;;;;9.82;75.93;100413.09;6119005;23;20325;-89
2024/01/14 10:43:17;;;;;;;11.40;6.00;;;;;;;8.98;80.53;100411.50;6119520;23;20014;-92
2024/01/14 10:45:47;;;;;;;13.32;6.80;;;;;;;9.81;78.76;100407.09;6118452;23;20421;-91
2024/01/14 10:48:13;;;;;;;9.23;5.93;;;;;;;10.16;75.89;100401.72;6120233;23;20085;-92
2024/01/14 10:50:42;;;;;;;9.68;6.10;;;;;;;11.33;69.50;100405.25;6119399;23;20033;-91
2024/01/14 10:53:16;;;;;;;11.52;5.72;;;;;;;12.28;64.63;100403.63;6120754;23;20052;-90
2024/01/14 10:55:49;;;;;;;7.80;5.15;;;;;;;11.61;63.59;100399.22;6119953;23;20006;-89
2024/01/14 10:58:25;;;;;;;8.45;5.45;;;;;;;10.58;67.73;100402.78;6120561;23;20005;-91
2024/01/14 11:00:51;;;;;;;12.65;5.75;;;;;;;13.10;61.18;100399.88;6118838;23;20337;-92
2024/01/14 11:03:18;;;;;;;9.75;6.60;;;;;;;12.29;59.41;100397.53;6119172;23;20005;-91